createdAt,value
2022-09-09T00:01:43.192Z,99800.91
2022-09-09T00:04:14.006Z,99803.34
2022-09-09T00:06:48.123Z,99806.22
2022-09-09T00:09:18.684Z,99794.78
2022-09-09T00:11:52.572Z,99794.19
2022-09-09T00:28:12.908Z,99786.44
2022-09-09T00:30:43.044Z,99790.94
2022-09-09T00:33:16.978Z,99788.47
2022-09-09T00:38:27.634Z,99794.41
2022-09-09T00:41:00.770Z,99785.41
2022-09-09T00:43:31.643Z,99787.84
2022-09-09T00:46:00.491Z,99781.94
2022-09-09T00:48:41.245Z,99779.28
2022-09-09T00:51:19.570Z,99788.88
2022-09-09T00:56:27.016Z,99792.91
2022-09-09T01:01:36.869Z,99782.41
2022-09-09T01:06:53.551Z,99770.38
2022-09-09T01:09:25.070Z,99778.38
2022-09-09T01:11:58.060Z,99772.03
2022-09-09T01:14:32.089Z,99768.53
2022-09-09T01:17:07.392Z,99769.13
2022-09-09T01:19:41.181Z,99767.28
2022-09-09T01:22:19.009Z,99763.78
2022-09-09T01:24:57.723Z,99769.13
2022-09-09T01:27:26.475Z,99778.13
2022-09-09T01:34:54.300Z,99764.25
2022-09-09T01:37:21.712Z,99764.25
2022-09-09T01:39:50.229Z,99763.91
2022-09-09T01:42:19.391Z,99766.56
2022-09-09T01:44:47.395Z,99761.81
2022-09-09T01:49:43.807Z,99754.44
2022-09-09T01:54:38.781Z,99764.25
2022-09-09T01:57:12.109Z,99765.28
2022-09-09T01:59:39.954Z,99763.44
2022-09-09T02:02:12.654Z,99768.53
2022-09-09T02:04:41.560Z,99770.16
2022-09-09T02:12:28.360Z,99764.69
2022-09-09T02:15:03.010Z,99762.84
2022-09-09T02:17:37.718Z,99761.00
2022-09-09T02:20:11.104Z,99763.31
2022-09-09T02:22:41.702Z,99761.47
2022-09-09T02:27:38.132Z,99772.09
2022-09-09T02:30:06.302Z,99773.72
2022-09-09T02:32:35.363Z,99767.34
2022-09-09T02:35:06.235Z,99771.88
2022-09-09T02:37:36.714Z,99774.28
2022-09-09T02:40:06.779Z,99772.44
2022-09-09T02:42:40.099Z,99768.16
2022-09-09T02:45:09.070Z,99772.44
2022-09-09T02:47:37.910Z,99773.28
2022-09-09T02:52:39.454Z,99776.53
2022-09-09T02:55:09.583Z,99781.03
2022-09-09T02:57:38.643Z,99777.34
2022-09-09T03:00:07.028Z,99768.75
2022-09-09T03:02:34.610Z,99790.03
2022-09-09T03:05:02.162Z,99777.78
2022-09-09T03:07:29.626Z,99782.88
2022-09-09T03:09:57.510Z,99783.31
2022-09-09T03:12:25.392Z,99786.56
2022-09-09T03:19:46.923Z,99788.06
2022-09-09T03:22:14.687Z,99784.59
2022-09-09T03:27:08.381Z,99783.97
2022-09-09T03:29:35.629Z,99786.88
2022-09-09T03:32:03.430Z,99790.56
2022-09-09T03:34:30.849Z,99792.19
2022-09-09T03:36:58.350Z,99784.19
2022-09-09T03:39:26.733Z,99793.59
2022-09-09T03:41:54.223Z,99796.03
2022-09-09T03:44:21.420Z,99799.72
2022-09-09T03:46:48.630Z,99801.56
2022-09-09T03:49:16.608Z,99799.91
2022-09-09T03:51:43.949Z,99809.19
2022-09-09T03:54:11.701Z,99809.38
2022-09-09T03:56:39.459Z,99808.34
2022-09-09T03:59:07.175Z,99808.16
2022-09-09T04:04:35.240Z,99811.03
2022-09-09T04:09:29.084Z,99817.38
2022-09-09T04:14:38.042Z,99832.75
2022-09-09T04:17:07.554Z,99828.47
2022-09-09T04:19:34.888Z,99823.97
2022-09-09T04:22:02.271Z,99824.19
2022-09-09T04:24:30.494Z,99827.06
2022-09-09T04:26:57.887Z,99828.69
2022-09-09T04:29:26.174Z,99823.34
2022-09-09T04:31:55.269Z,99830.31
2022-09-09T04:41:43.983Z,99839.09
2022-09-09T04:46:39.211Z,99845.81
2022-09-09T04:49:06.695Z,99846.63
2022-09-09T04:51:34.167Z,99846.63
2022-09-09T04:54:01.410Z,99841.53
2022-09-09T04:56:29.593Z,99850.09
2022-09-09T05:01:25.577Z,99847.91
2022-09-09T05:03:54.562Z,99851.13
2022-09-09T05:08:51.352Z,99859.72
2022-09-09T05:11:21.772Z,99867.69
2022-09-09T05:16:18.632Z,99873.03
2022-09-09T05:18:47.421Z,99873.22
2022-09-09T05:23:44.463Z,99876.50
2022-09-09T05:26:17.622Z,99886.53
2022-09-09T05:28:45.902Z,99880.19
2022-09-09T05:31:14.816Z,99881.22
2022-09-09T05:33:44.455Z,99891.28
2022-09-09T05:36:14.843Z,99897.38
2022-09-09T05:38:42.687Z,99894.97
2022-09-09T05:41:12.669Z,99896.00
2022-09-09T05:43:40.754Z,99899.47
2022-09-09T05:46:09.391Z,99901.53
2022-09-09T05:48:38.694Z,99910.31
2022-09-09T05:51:09.709Z,99903.16
2022-09-09T05:53:37.274Z,99917.06
2022-09-09T05:56:07.249Z,99910.47
2022-09-09T05:58:37.459Z,99920.91
2022-09-09T06:01:09.081Z,99920.31
2022-09-09T06:06:08.015Z,99939.16
2022-09-09T06:08:38.977Z,99937.53
2022-09-09T06:11:08.840Z,99938.34
2022-09-09T06:16:06.765Z,99935.44
2022-09-09T06:18:34.713Z,99944.25
2022-09-09T06:26:06.884Z,99955.69
2022-09-09T06:28:35.492Z,99952.22
2022-09-09T06:31:10.080Z,99950.38
2022-09-09T06:33:42.544Z,99952.22
2022-09-09T06:36:16.341Z,99950.84
2022-09-09T06:38:44.799Z,99949.81
2022-09-09T06:43:41.420Z,99952.06
2022-09-09T06:46:13.518Z,99954.16
2022-09-09T06:48:42.149Z,99953.72
2022-09-09T06:51:12.921Z,99963.31
2022-09-09T06:53:43.019Z,99955.91
2022-09-09T06:56:17.382Z,99961.03
2022-09-09T06:58:46.434Z,99959.38
2022-09-09T07:01:16.251Z,99971.88
2022-09-09T07:06:18.551Z,99979.66
2022-09-09T07:08:56.181Z,99974.13
2022-09-09T07:13:43.911Z,99986.59
2022-09-09T07:16:14.352Z,99986.59
2022-09-09T07:18:42.446Z,99996.44
2022-09-09T07:23:38.037Z,100009.34
2022-09-09T07:28:39.110Z,100010.59
2022-09-09T07:33:36.689Z,100012.22
2022-09-09T07:36:07.306Z,100018.97
2022-09-09T07:41:13.191Z,100022.41
2022-09-09T07:43:42.201Z,100037.34
2022-09-09T07:46:11.121Z,100033.31
2022-09-09T07:48:38.611Z,100040.03
2022-09-09T07:51:12.884Z,100044.31
2022-09-09T07:53:41.359Z,100040.41
2022-09-09T07:56:13.617Z,100043.47
2022-09-09T07:58:42.077Z,100051.25
2022-09-09T08:03:38.676Z,100050.81
2022-09-09T08:08:36.487Z,100049.63
2022-09-09T08:11:06.378Z,100052.03
2022-09-09T08:13:33.636Z,100063.50
2022-09-09T08:18:31.969Z,100063.47
2022-09-09T08:20:59.216Z,100064.63
2022-09-09T08:23:27.372Z,100069.75
2022-09-09T08:25:54.659Z,100082.25
2022-09-09T08:28:22.251Z,100079.38
2022-09-09T08:30:49.509Z,100089.00
2022-09-09T08:35:54.215Z,100099.63
2022-09-09T08:38:22.554Z,100108.66
2022-09-09T08:40:54.542Z,100107.22
2022-09-09T08:43:23.497Z,100103.38
2022-09-09T08:51:08.708Z,100115.00
2022-09-09T08:53:43.982Z,100114.78
2022-09-09T08:56:15.767Z,100118.28
2022-09-09T08:58:50.471Z,100127.66
2022-09-09T09:01:28.239Z,100131.94
2022-09-09T09:04:02.563Z,100132.53
2022-09-09T09:06:33.383Z,100145.63
2022-09-09T09:09:03.738Z,100148.28
2022-09-09T09:11:36.698Z,100148.28
2022-09-09T09:14:09.513Z,100141.94
2022-09-09T09:16:47.141Z,100147.28
2022-09-09T09:19:17.231Z,100149.72
2022-09-09T09:24:22.218Z,100158.09
2022-09-09T09:26:49.557Z,100152.91
2022-09-09T09:29:19.214Z,100158.63
2022-09-09T09:31:52.961Z,100164.75
2022-09-09T09:34:20.270Z,100165.38
2022-09-09T09:36:55.469Z,100174.75
2022-09-09T09:42:17.837Z,100181.06
2022-09-09T09:44:49.072Z,100178.41
2022-09-09T09:47:19.193Z,100181.66
2022-09-09T09:49:52.292Z,100187.97
2022-09-09T09:52:25.212Z,100184.28
2022-09-09T09:57:25.720Z,100194.28
2022-09-09T10:00:03.583Z,100195.88
2022-09-09T10:02:39.128Z,100192.44
2022-09-09T10:05:16.198Z,100194.84
2022-09-09T10:07:47.226Z,100201.81
2022-09-09T10:10:23.537Z,100203.25
2022-09-09T10:12:54.926Z,100211.00
2022-09-09T10:15:28.674Z,100203.63
2022-09-09T10:18:05.693Z,100204.19
2022-09-09T10:23:11.552Z,100209.09
2022-09-09T10:25:50.590Z,100202.13
2022-09-09T10:28:19.706Z,100213.00
2022-09-09T10:30:51.274Z,100211.78
2022-09-09T10:33:30.279Z,100221.41
2022-09-09T10:36:01.410Z,100223.00
2022-09-09T10:41:21.502Z,100225.91
2022-09-09T10:43:51.435Z,100229.59
2022-09-09T10:46:22.403Z,100234.09
2022-09-09T10:48:56.010Z,100230.84
2022-09-09T10:51:30.503Z,100232.72
2022-09-09T10:54:01.063Z,100228.63
2022-09-09T10:56:30.562Z,100224.94
2022-09-09T10:59:00.906Z,100227.97
2022-09-09T11:01:35.557Z,100222.63
2022-09-09T11:06:43.790Z,100230.56
2022-09-09T11:09:19.648Z,100222.13
2022-09-09T11:11:52.037Z,100225.56
2022-09-09T11:14:25.790Z,100223.91
2022-09-09T11:16:59.444Z,100229.38
2022-09-09T11:22:08.675Z,100234.06
2022-09-09T11:24:42.411Z,100239.75
2022-09-09T11:27:13.571Z,100230.28
2022-09-09T11:29:48.936Z,100238.88
2022-09-09T11:32:58.003Z,100240.06
2022-09-09T11:38:16.038Z,100245.75
2022-09-09T11:40:44.210Z,100244.31
2022-09-09T11:43:19.345Z,100231.94
2022-09-09T11:45:58.732Z,100238.34
2022-09-09T11:48:39.991Z,100240.13
2022-09-09T11:51:17.063Z,100249.31
2022-09-09T11:53:54.265Z,100250.13
2022-09-09T11:59:08.190Z,100248.00
2022-09-09T12:01:39.766Z,100246.31
2022-09-09T12:06:54.854Z,100246.50
2022-09-09T12:12:16.772Z,100247.59
2022-09-09T12:17:28.897Z,100245.19
2022-09-09T12:20:13.648Z,100248.78
2022-09-09T12:22:55.584Z,100246.72
2022-09-09T12:28:20.603Z,100242.78
2022-09-09T12:33:45.414Z,100247.19
2022-09-09T12:36:18.890Z,100247.09
2022-09-09T12:38:47.383Z,100243.97
2022-09-09T12:41:23.552Z,100243.06
2022-09-09T12:43:53.620Z,100242.38
2022-09-09T12:48:59.671Z,100248.44
2022-09-09T12:54:16.985Z,100254.38
2022-09-09T12:56:47.966Z,100249.03
2022-09-09T12:59:27.283Z,100256.47
2022-09-09T13:01:58.912Z,100251.03
2022-09-09T13:04:25.961Z,100263.69
2022-09-09T13:06:56.604Z,100257.75
2022-09-09T13:09:23.527Z,100258.09
2022-09-09T13:11:57.326Z,100251.50
2022-09-09T13:14:33.853Z,100244.66
2022-09-09T13:17:04.457Z,100256.88
2022-09-09T13:19:36.581Z,100244.47
2022-09-09T13:22:26.131Z,100250.41
2022-09-09T13:25:43.720Z,100256.34
2022-09-09T13:28:22.827Z,100259.13
2022-09-09T13:31:08.246Z,100264.00
2022-09-09T13:33:38.537Z,100259.59
2022-09-09T13:36:11.728Z,100267.50
2022-09-09T13:38:53.747Z,100258.44
2022-09-09T13:41:23.421Z,100260.31
2022-09-09T13:43:51.266Z,100258.19
2022-09-09T13:46:31.402Z,100260.97
2022-09-09T13:49:19.616Z,100258.69
2022-09-09T13:51:51.801Z,100264.59
2022-09-09T13:54:20.347Z,100267.50
2022-09-09T13:56:47.713Z,100269.13
2022-09-09T13:59:20.939Z,100270.16
2022-09-09T14:01:50.466Z,100266.34
2022-09-09T14:04:18.102Z,100274.00
2022-09-09T14:06:45.536Z,100273.19
2022-09-09T14:09:16.626Z,100266.22
2022-09-09T14:11:44.502Z,100282.03
2022-09-09T14:14:11.440Z,100280.19
2022-09-09T14:16:39.804Z,100289.03
2022-09-09T14:19:06.638Z,100283.41
2022-09-09T14:21:33.849Z,100289.25
2022-09-09T14:24:00.782Z,100285.19
2022-09-09T14:26:27.600Z,100275.63
2022-09-09T14:28:55.680Z,100286.53
2022-09-09T14:31:24.279Z,100283.06
2022-09-09T14:33:52.228Z,100277.97
2022-09-09T14:36:19.108Z,100282.50
2022-09-09T14:38:45.943Z,100279.22
2022-09-09T14:41:17.988Z,100276.00
2022-09-09T14:43:45.859Z,100281.91
2022-09-09T14:46:15.671Z,100277.59
2022-09-09T14:48:42.877Z,100287.94
2022-09-09T14:51:29.854Z,100275.63
2022-09-09T14:54:00.704Z,100282.81
2022-09-09T14:56:30.987Z,100280.75
2022-09-09T14:59:02.187Z,100282.03
2022-09-09T15:01:30.583Z,100284.09
2022-09-09T15:03:59.284Z,100285.72
2022-09-09T15:06:30.653Z,100288.63
2022-09-09T15:09:00.618Z,100295.84
2022-09-09T15:11:29.267Z,100296.06
2022-09-09T15:13:56.259Z,100291.78
2022-09-09T15:16:25.163Z,100307.81
2022-09-09T15:18:55.352Z,100309.41
2022-09-09T15:21:24.296Z,100305.94
2022-09-09T15:23:52.367Z,100306.84
2022-09-09T15:26:19.668Z,100303.78
2022-09-09T15:28:48.528Z,100306.56
2022-09-09T15:31:26.363Z,100303.09
2022-09-09T15:34:01.744Z,100314.22
2022-09-09T15:36:34.630Z,100314.91
2022-09-09T15:39:02.930Z,100326.66
2022-09-09T15:41:32.666Z,100335.91
2022-09-09T15:44:01.622Z,100339.06
2022-09-09T15:46:34.199Z,100331.47
2022-09-09T15:49:26.625Z,100333.56
2022-09-09T15:51:59.018Z,100336.69
2022-09-09T15:54:27.359Z,100329.94
2022-09-09T15:56:57.177Z,100325.63
2022-09-09T15:59:25.940Z,100324.81
2022-09-09T16:01:53.495Z,100330.16
2022-09-09T16:04:26.821Z,100329.34
2022-09-09T16:07:01.451Z,100332.22
2022-09-09T16:09:29.559Z,100334.56
2022-09-09T16:12:02.094Z,100336.41
2022-09-09T16:14:29.586Z,100340.72
2022-09-09T16:16:57.730Z,100350.94
2022-09-09T16:19:24.534Z,100337.81
2022-09-09T16:21:51.462Z,100337.22
2022-09-09T16:24:20.511Z,100335.59
2022-09-09T16:26:50.082Z,100329.44
2022-09-09T16:29:18.621Z,100338.25
2022-09-09T16:31:47.337Z,100335.97
2022-09-09T16:34:15.937Z,100344.56
2022-09-09T16:36:43.953Z,100352.13
2022-09-09T16:39:13.795Z,100338.53
2022-09-09T16:41:42.509Z,100344.94
2022-09-09T16:44:12.049Z,100350.03
2022-09-09T16:46:41.914Z,100349.00
2022-09-09T16:49:11.360Z,100348.78
2022-09-09T16:51:44.050Z,100352.03
2022-09-09T16:54:11.250Z,100366.19
2022-09-09T16:56:42.765Z,100349.81
2022-09-09T16:59:12.822Z,100359.47
2022-09-09T17:01:44.353Z,100355.75
2022-09-09T17:04:15.248Z,100356.53
2022-09-09T17:07:00.243Z,100349.13
2022-09-09T17:09:45.083Z,100355.28
2022-09-09T17:12:38.674Z,100365.38
2022-09-09T17:15:09.121Z,100372.00
2022-09-09T17:17:36.240Z,100377.56
2022-09-09T17:20:03.902Z,100378.84
2022-09-09T17:22:30.763Z,100390.78
2022-09-09T17:24:57.520Z,100378.91
2022-09-09T17:27:24.297Z,100378.09
2022-09-09T17:29:51.100Z,100390.63
2022-09-09T17:32:17.922Z,100392.72
2022-09-09T17:34:45.103Z,100381.44
2022-09-09T17:37:12.546Z,100385.97
2022-09-09T17:39:39.559Z,100395.81
2022-09-09T17:42:08.628Z,100391.53
2022-09-09T17:44:35.503Z,100400.81
2022-09-09T17:47:04.957Z,100401.84
2022-09-09T17:49:34.621Z,100409.25
2022-09-09T17:52:01.820Z,100418.06
2022-09-09T17:54:29.091Z,100412.38
2022-09-09T17:56:56.285Z,100399.84
2022-09-09T17:59:23.200Z,100398.41
2022-09-09T18:01:51.128Z,100404.81
2022-09-09T18:04:19.413Z,100405.84
2022-09-09T18:06:49.296Z,100404.22
2022-09-09T18:09:20.243Z,100410.84
2022-09-09T18:11:49.745Z,100416.03
2022-09-09T18:14:22.039Z,100416.22
2022-09-09T18:16:50.147Z,100419.31
2022-09-09T18:19:22.952Z,100426.97
2022-09-09T18:21:50.595Z,100427.19
2022-09-09T18:24:19.541Z,100435.19
2022-09-09T18:27:00.210Z,100443.59
2022-09-09T18:29:27.109Z,100448.59
2022-09-09T18:31:55.467Z,100456.78
2022-09-09T18:34:25.810Z,100442.25
2022-09-09T18:36:55.209Z,100457.66
2022-09-09T18:39:25.255Z,100473.09
2022-09-09T18:41:54.438Z,100467.97
2022-09-09T18:44:26.891Z,100471.66
2022-09-09T18:46:54.762Z,100464.94
2022-09-09T18:49:24.584Z,100468.63
2022-09-09T18:51:51.804Z,100470.69
2022-09-09T18:54:22.045Z,100473.56
2022-09-09T18:56:49.820Z,100484.06
2022-09-09T18:59:20.215Z,100485.53
2022-09-09T19:01:48.322Z,100480.88
2022-09-09T19:04:15.517Z,100489.31
2022-09-09T19:06:46.697Z,100496.13
2022-09-09T19:09:15.541Z,100507.41
2022-09-09T19:11:43.336Z,100504.97
2022-09-09T19:14:12.890Z,100517.69
2022-09-09T19:16:40.767Z,100513.38
2022-09-09T19:19:12.730Z,100523.22
2022-09-09T19:21:41.368Z,100531.22
2022-09-09T19:24:11.758Z,100529.63
2022-09-09T19:26:43.542Z,100536.78
2022-09-09T19:29:15.402Z,100539.06
2022-09-09T19:31:59.595Z,100540.31
2022-09-09T19:34:30.605Z,100544.22
2022-09-09T19:36:57.590Z,100542.34
2022-09-09T19:39:24.421Z,100544.00
2022-09-09T19:41:51.204Z,100542.34
2022-09-09T19:44:18.110Z,100543.41
2022-09-09T19:46:48.813Z,100560.19
2022-09-09T19:49:15.913Z,100558.34
2022-09-09T19:51:43.581Z,100556.31
2022-09-09T19:54:16.285Z,100553.66
2022-09-09T19:56:44.039Z,100554.47
2022-09-09T19:59:12.646Z,100554.47
2022-09-09T20:01:42.391Z,100557.72
2022-09-09T20:04:09.682Z,100571.28
2022-09-09T20:06:38.632Z,100568.63
2022-09-09T20:09:07.323Z,100576.63
2022-09-09T20:11:34.741Z,100572.50
2022-09-09T20:14:02.136Z,100581.13
2022-09-09T20:16:30.945Z,100586.66
2022-09-09T20:19:07.513Z,100582.16
2022-09-09T20:21:43.897Z,100581.13
2022-09-09T20:24:15.370Z,100580.50
2022-09-09T20:26:42.653Z,100583.59
2022-09-09T20:29:15.985Z,100585.00
2022-09-09T20:31:44.549Z,100576.63
2022-09-09T20:34:19.112Z,100581.13
2022-09-09T20:36:46.714Z,100584.63
2022-09-09T20:39:17.092Z,100581.31
2022-09-09T20:41:45.565Z,100594.88
2022-09-09T20:44:18.099Z,100594.06
2022-09-09T20:46:50.260Z,100597.75
2022-09-09T20:49:19.778Z,100600.84
2022-09-09T20:51:48.187Z,100603.94
2022-09-09T20:54:17.863Z,100612.75
2022-09-09T20:56:46.289Z,100613.97
2022-09-09T20:59:16.648Z,100617.91
2022-09-09T21:01:44.629Z,100614.41
2022-09-09T21:04:12.617Z,100612.56
2022-09-09T21:06:39.734Z,100619.53
2022-09-09T21:09:07.124Z,100618.09
2022-09-09T21:11:35.207Z,100615.88
2022-09-09T21:14:02.816Z,100625.09
2022-09-09T21:16:30.156Z,100622.84
2022-09-09T21:18:57.042Z,100626.94
2022-09-09T21:21:23.812Z,100636.38
2022-09-09T21:23:54.095Z,100628.81
2022-09-09T21:26:20.977Z,100628.59
2022-09-09T21:28:47.749Z,100632.72
2022-09-09T21:31:16.410Z,100636.59
2022-09-09T21:33:43.655Z,100634.13
2022-09-09T21:36:12.806Z,100631.91
2022-09-09T21:38:42.853Z,100635.59
2022-09-09T21:41:15.444Z,100648.09
2022-09-09T21:43:44.501Z,100632.91
2022-09-09T21:46:14.578Z,100640.09
2022-09-09T21:48:42.010Z,100637.03
2022-09-09T21:51:11.958Z,100637.22
2022-09-09T21:53:39.809Z,100637.03
2022-09-09T21:56:10.499Z,100641.34
2022-09-09T21:58:37.515Z,100646.28
2022-09-09T22:01:14.873Z,100647.72
2022-09-09T22:03:42.898Z,100642.78
2022-09-09T22:06:13.357Z,100651.19
2022-09-09T22:08:40.426Z,100651.41
2022-09-09T22:11:14.816Z,100652.63
2022-09-09T22:13:42.749Z,100648.34
2022-09-09T22:16:12.507Z,100652.22
2022-09-09T22:18:40.172Z,100656.94
2022-09-09T22:21:13.280Z,100659.22
2022-09-09T22:23:40.186Z,100667.19
2022-09-09T22:26:07.467Z,100673.94
2022-09-09T22:28:35.405Z,100668.81
2022-09-09T22:31:02.553Z,100670.84
2022-09-09T22:33:29.361Z,100660.22
2022-09-09T22:35:56.143Z,100667.56
2022-09-09T22:38:23.204Z,100673.94
2022-09-09T22:40:50.009Z,100675.97
2022-09-09T22:43:20.589Z,100680.66
2022-09-09T22:45:48.325Z,100678.00
2022-09-09T22:48:15.927Z,100679.88
2022-09-09T22:50:43.023Z,100681.72
2022-09-09T22:53:13.933Z,100677.22
2022-09-09T22:55:42.408Z,100685.81
2022-09-09T22:58:09.915Z,100683.34
2022-09-09T23:00:40.674Z,100687.03
2022-09-09T23:03:08.086Z,100683.75
2022-09-09T23:05:35.621Z,100686.00
2022-09-09T23:08:02.603Z,100686.41
2022-09-09T23:10:29.623Z,100683.13
2022-09-09T23:12:58.226Z,100682.31
2022-09-09T23:15:31.506Z,100690.50
2022-09-09T23:17:58.741Z,100690.09
2022-09-09T23:20:26.742Z,100693.75
2022-09-09T23:22:54.425Z,100698.66
2022-09-09T23:25:32.408Z,100697.81
2022-09-09T23:27:59.175Z,100689.84
2022-09-09T23:30:26.438Z,100683.50
2022-09-09T23:32:53.517Z,100684.31
2022-09-09T23:35:28.508Z,100674.88
2022-09-09T23:37:55.344Z,100678.78
2022-09-09T23:40:23.332Z,100683.28
2022-09-09T23:42:50.712Z,100688.81
2022-09-09T23:45:18.759Z,100678.56
2022-09-09T23:47:45.842Z,100689.41
2022-09-09T23:50:13.140Z,100688.78
2022-09-09T23:52:44.260Z,100691.44
2022-09-09T23:55:11.455Z,100689.00
2022-09-09T23:57:38.269Z,100690.84
